Time;durP1;ratioP1;P1;durP2;ratioP2;P2;SDS_P1;SDS_P2;PMS_P1;PMS_P2;Temp;Humidity;BMP_temperature;BMP_pressure;BME280_temperature;BME280_humidity;BME280_pressure;Samples;Min_cycle;Max_cycle;Signal;HPM_P1;HPM_P2
2022/12/25 00:01:18;;;;;;;81.43;24.08;;;5.10;99.90;;;;;;6150255;23;20049;-67
2022/12/25 00:03:44;;;;;;;78.75;23.52;;;5.10;99.90;;;;;;6178070;23;20025;-67
2022/12/25 00:06:10;;;;;;;80.75;24.77;;;5.10;99.90;;;;;;6152490;23;20028;-67
2022/12/25 00:08:37;;;;;;;96.22;26.38;;;5.20;99.90;;;;;;6152409;23;20059;-67
2022/12/25 00:11:05;;;;;;;93.72;25.27;;;5.10;99.90;;;;;;6179407;23;20025;-67
2022/12/25 00:13:31;;;;;;;87.20;25.75;;;5.10;99.90;;;;;;6153013;23;20022;-67
2022/12/25 00:15:57;;;;;;;93.85;24.23;;;5.20;99.90;;;;;;6178700;23;20488;-67
2022/12/25 00:18:23;;;;;;;93.60;25.70;;;5.20;99.90;;;;;;6178543;23;20025;-67
2022/12/25 00:21:00;;;;;;;97.75;28.92;;;5.10;99.90;;;;;;6180486;23;20044;-67
2022/12/25 00:23:26;;;;;;;91.30;25.80;;;5.10;99.90;;;;;;6152805;23;20017;-67
2022/12/25 00:25:52;;;;;;;101.75;27.42;;;5.30;99.90;;;;;;6179483;23;20033;-67
2022/12/25 00:28:18;;;;;;;92.53;27.20;;;5.30;99.90;;;;;;6152807;23;20021;-67
2022/12/25 00:30:44;;;;;;;98.43;26.55;;;5.30;99.90;;;;;;6151673;23;20021;-67
2022/12/25 00:33:09;;;;;;;100.18;27.30;;;5.40;99.90;;;;;;6151532;23;20025;-67
2022/12/25 00:35:35;;;;;;;93.35;26.63;;;5.30;99.90;;;;;;6180368;23;20021;-67
2022/12/25 00:38:01;;;;;;;91.10;25.70;;;5.40;99.90;;;;;;6177669;23;20530;-70
2022/12/25 00:40:27;;;;;;;98.30;26.80;;;5.40;99.90;;;;;;6153240;23;20083;-67
2022/12/25 00:42:53;;;;;;;98.68;26.95;;;5.30;99.90;;;;;;6179672;23;20393;-67
2022/12/25 00:45:19;;;;;;;94.65;25.83;;;5.40;99.90;;;;;;6177958;23;20412;-67
2022/12/25 00:47:44;;;;;;;101.13;27.55;;;5.30;99.90;;;;;;6151512;23;20017;-67
2022/12/25 00:50:10;;;;;;;111.07;27.50;;;5.30;99.90;;;;;;6178717;23;20108;-67
2022/12/25 00:52:36;;;;;;;97.80;27.77;;;5.30;99.90;;;;;;6179562;23;20048;-67
2022/12/25 00:55:02;;;;;;;103.72;28.17;;;5.30;99.90;;;;;;6178955;23;20021;-67
2022/12/25 00:57:27;;;;;;;85.25;25.70;;;5.30;99.90;;;;;;6152893;23;20025;-67
2022/12/25 00:59:53;;;;;;;93.38;25.63;;;5.30;99.90;;;;;;6179758;23;20024;-67
2022/12/25 01:02:24;;;;;;;102.72;26.73;;;5.20;99.90;;;;;;6178000;23;20027;-67
2022/12/25 01:04:52;;;;;;;96.07;26.10;;;5.20;99.90;;;;;;6178839;23;20084;-67
2022/12/25 01:07:19;;;;;;;95.00;26.52;;;5.20;99.90;;;;;;6178647;23;20469;-67
2022/12/25 01:12:32;;;;;;;95.55;25.75;;;5.10;99.90;;;;;;6151366;23;20048;-67
2022/12/25 01:14:59;;;;;;;97.80;23.58;;;5.10;99.90;;;;;;6152528;23;20402;-67
2022/12/25 01:17:25;;;;;;;103.53;25.50;;;5.10;99.90;;;;;;6150176;23;20047;-67
2022/12/25 01:19:50;;;;;;;99.72;24.70;;;5.00;99.90;;;;;;6178909;23;20020;-67
2022/12/25 01:22:16;;;;;;;87.38;24.98;;;5.00;99.90;;;;;;6152458;23;20032;-67
2022/12/25 01:24:43;;;;;;;90.35;23.30;;;5.00;99.90;;;;;;6153871;23;20021;-68
2022/12/25 01:27:09;;;;;;;102.80;26.60;;;5.00;99.90;;;;;;6151677;23;20051;-67
2022/12/25 01:29:35;;;;;;;100.90;26.60;;;5.00;99.90;;;;;;6152579;23;20475;-66
2022/12/25 01:32:01;;;;;;;94.97;25.88;;;5.00;99.90;;;;;;6178078;23;20088;-70
2022/12/25 01:34:26;;;;;;;98.80;26.00;;;5.10;99.90;;;;;;6167875;23;20017;-67
2022/12/25 01:36:52;;;;;;;104.80;27.08;;;5.00;99.90;;;;;;6177325;23;20032;-67
2022/12/25 01:39:18;;;;;;;104.47;28.50;;;5.10;99.90;;;;;;6177021;23;20040;-67
2022/12/25 01:41:44;;;;;;;96.38;28.00;;;5.10;99.90;;;;;;6178425;23;20024;-68
2022/12/25 01:44:12;;;;;;;103.93;28.48;;;5.30;99.90;;;;;;6177070;23;20024;-67
2022/12/25 01:46:38;;;;;;;114.55;29.20;;;5.40;99.90;;;;;;6176711;23;20017;-67
2022/12/25 01:49:19;;;;;;;108.40;28.25;;;5.40;99.90;;;;;;6177217;23;20468;-67
2022/12/25 01:51:51;;;;;;;104.82;29.52;;;5.50;99.90;;;;;;6179386;23;20017;-67
2022/12/25 01:54:22;;;;;;;106.75;29.45;;;5.60;99.90;;;;;;6178924;23;20343;-67
2022/12/25 01:56:50;;;;;;;103.25;29.50;;;5.70;99.90;;;;;;6176766;23;20063;-67
2022/12/25 01:59:20;;;;;;;106.97;29.55;;;5.80;99.90;;;;;;6178827;23;20021;-68
2022/12/25 02:01:47;;;;;;;96.88;28.27;;;5.80;99.90;;;;;;6175207;23;20045;-67
2022/12/25 02:04:37;;;;;;;110.38;30.73;;;6.00;99.90;;;;;;6179169;23;20079;-67
2022/12/25 02:07:14;;;;;;;112.40;30.02;;;6.10;99.90;;;;;;6178422;23;20036;-67
2022/12/25 02:09:40;;;;;;;85.82;27.00;;;6.10;99.90;;;;;;6178477;23;20123;-67
2022/12/25 02:12:08;;;;;;;102.57;30.55;;;6.20;99.90;;;;;;6180428;23;20024;-67
2022/12/25 02:14:36;;;;;;;106.50;31.73;;;6.20;99.90;;;;;;6179226;23;20028;-66
2022/12/25 02:17:26;;;;;;;116.30;32.67;;;6.40;99.90;;;;;;6177952;23;20055;-67
2022/12/25 02:20:10;;;;;;;109.78;32.05;;;6.40;99.90;;;;;;6178943;23;20094;-66
2022/12/25 02:23:01;;;;;;;97.70;32.50;;;6.40;99.90;;;;;;6178787;23;20100;-66
2022/12/25 02:26:04;;;;;;;101.40;31.50;;;6.50;99.90;;;;;;6181180;23;20027;-67
2022/12/25 02:28:54;;;;;;;118.75;34.75;;;6.60;99.90;;;;;;6178946;23;20028;-67
2022/12/25 02:31:49;;;;;;;103.72;33.92;;;6.60;99.90;;;;;;6176672;23;20045;-67
2022/12/25 02:34:40;;;;;;;110.30;33.95;;;6.70;99.90;;;;;;6180127;23;20017;-67
2022/12/25 02:37:22;;;;;;;107.13;33.55;;;6.70;99.90;;;;;;6159475;23;20017;-68
2022/12/25 02:40:05;;;;;;;118.47;34.33;;;6.80;99.90;;;;;;6154808;23;20032;-66
2022/12/25 03:08:21;;;;;;;108.93;32.17;;;6.90;99.90;;;;;;6179952;23;20029;-67
2022/12/25 03:13:42;;;;;;;115.10;33.97;;;7.00;99.90;;;;;;6179280;23;20025;-66
2022/12/25 03:18:54;;;;;;;99.70;31.55;;;7.00;99.90;;;;;;6180111;23;20017;-66
2022/12/25 03:27:09;;;;;;;105.57;34.60;;;7.10;99.90;;;;;;6058872;23;20027;-66
2022/12/25 03:32:39;;;;;;;108.82;33.85;;;7.20;99.90;;;;;;6127994;23;20024;-67
2022/12/25 03:35:24;;;;;;;110.35;34.15;;;7.20;99.90;;;;;;6180149;23;20473;-67
2022/12/25 03:42:30;;;;;;;102.65;30.52;;;7.20;99.90;;;;;;6178260;23;20072;-67
2022/12/25 04:37:18;;;;;;;134.95;39.92;;;7.60;99.90;;;;;;6179243;23;20481;-66
2022/12/25 04:39:43;;;;;;;110.97;35.20;;;7.60;99.90;;;;;;6180051;23;20055;-67
2022/12/25 04:42:09;;;;;;;106.47;33.03;;;7.60;99.90;;;;;;6176539;23;20025;-66
2022/12/25 04:44:35;;;;;;;125.82;35.75;;;7.60;99.90;;;;;;6176777;23;20528;-67
2022/12/25 04:49:36;;;;;;;113.65;34.50;;;7.60;99.90;;;;;;6112790;23;20049;-67
2022/12/25 04:52:01;;;;;;;106.93;33.53;;;7.50;99.90;;;;;;6117186;23;20026;-68
2022/12/25 04:54:27;;;;;;;115.03;33.05;;;7.60;99.90;;;;;;6093972;23;20366;-67
2022/12/25 04:56:53;;;;;;;110.72;34.05;;;7.60;99.90;;;;;;6119156;23;20472;-67
2022/12/25 04:59:18;;;;;;;111.20;33.92;;;7.60;99.90;;;;;;6091496;23;20030;-67
2022/12/25 05:01:44;;;;;;;111.57;33.17;;;7.60;99.90;;;;;;6092693;23;20089;-67
2022/12/25 05:04:09;;;;;;;115.20;33.67;;;7.50;99.90;;;;;;6118130;23;20641;-67
2022/12/25 05:06:35;;;;;;;104.07;33.30;;;7.50;99.90;;;;;;6120074;23;20033;-67
2022/12/25 05:09:01;;;;;;;111.70;34.38;;;7.50;99.90;;;;;;6119777;23;20025;-67
2022/12/25 05:11:26;;;;;;;100.50;33.53;;;7.60;99.90;;;;;;6118856;23;20026;-67
2022/12/25 05:13:52;;;;;;;87.18;31.15;;;7.50;99.90;;;;;;6120314;23;20022;-67
2022/12/25 05:16:19;;;;;;;114.07;34.53;;;7.50;99.90;;;;;;6117378;23;20033;-67
2022/12/25 05:18:48;;;;;;;97.40;34.05;;;7.50;99.90;;;;;;6093644;23;20581;-67
2022/12/25 05:21:14;;;;;;;102.93;32.75;;;7.50;99.90;;;;;;6118881;23;20049;-67
2022/12/25 05:23:47;;;;;;;105.07;34.03;;;7.60;99.90;;;;;;6119420;23;20583;-67
2022/12/25 05:26:14;;;;;;;110.40;34.78;;;7.50;99.90;;;;;;6119213;23;20026;-68
2022/12/25 05:28:39;;;;;;;99.57;31.38;;;7.50;99.90;;;;;;6119393;23;20050;-67
2022/12/25 05:31:05;;;;;;;97.25;32.78;;;7.50;99.90;;;;;;6118494;23;20022;-67
2022/12/25 05:33:31;;;;;;;92.88;31.90;;;7.60;99.90;;;;;;6118401;23;20062;-68
2022/12/25 05:35:57;;;;;;;90.05;33.17;;;7.60;99.90;;;;;;6093377;23;20026;-67
2022/12/25 05:38:22;;;;;;;94.78;31.55;;;7.60;99.90;;;;;;6118877;23;20030;-67
2022/12/25 05:40:50;;;;;;;93.30;35.03;;;7.60;99.90;;;;;;6120691;23;20030;-67
2022/12/25 05:43:18;;;;;;;86.45;31.77;;;7.60;99.90;;;;;;6120639;23;20101;-66
2022/12/25 05:45:44;;;;;;;99.05;32.78;;;7.50;99.90;;;;;;6121177;23;20045;-67
2022/12/25 05:48:09;;;;;;;108.25;34.63;;;7.60;99.90;;;;;;6118054;23;20454;-67
2022/12/25 05:50:36;;;;;;;108.95;34.05;;;7.60;99.90;;;;;;6094487;23;20026;-66
2022/12/25 05:53:04;;;;;;;104.68;34.15;;;7.60;99.90;;;;;;6119085;23;20049;-67
2022/12/25 05:55:33;;;;;;;102.47;33.42;;;7.60;99.90;;;;;;6095884;23;20029;-67
2022/12/25 05:57:59;;;;;;;99.78;33.58;;;7.60;99.90;;;;;;6094700;23;20022;-67
2022/12/25 06:00:25;;;;;;;92.70;32.75;;;7.70;99.90;;;;;;6094163;23;20017;-67
2022/12/25 06:02:51;;;;;;;104.45;34.08;;;7.70;99.90;;;;;;6119751;23;20527;-67
2022/12/25 06:05:16;;;;;;;94.05;31.65;;;7.70;99.90;;;;;;6118769;23;20030;-67
2022/12/25 06:07:45;;;;;;;92.13;31.58;;;7.70;99.90;;;;;;6120870;23;20104;-67
2022/12/25 06:10:11;;;;;;;76.15;27.13;;;7.70;99.90;;;;;;6117383;23;20513;-67
2022/12/25 06:12:39;;;;;;;93.95;31.30;;;7.70;99.90;;;;;;6118572;23;20195;-67
2022/12/25 06:15:06;;;;;;;102.82;33.00;;;7.80;99.90;;;;;;6119733;23;20037;-67
2022/12/25 06:17:32;;;;;;;109.13;35.10;;;7.80;99.90;;;;;;6120340;23;20021;-68
2022/12/25 06:19:58;;;;;;;100.60;33.40;;;7.80;99.90;;;;;;6115230;23;20096;-68
2022/12/25 06:22:29;;;;;;;92.63;31.80;;;7.80;99.90;;;;;;6094466;23;20093;-66
2022/12/25 06:24:54;;;;;;;95.53;33.25;;;7.80;99.90;;;;;;6095965;23;20029;-68
2022/12/25 06:27:20;;;;;;;100.25;34.58;;;7.80;99.90;;;;;;6095299;23;20022;-66
2022/12/25 06:29:45;;;;;;;91.68;32.88;;;7.90;99.90;;;;;;6120232;23;20458;-68
2022/12/25 06:32:11;;;;;;;98.22;32.92;;;7.80;99.90;;;;;;6093816;23;20093;-66
2022/12/25 06:34:37;;;;;;;100.32;33.33;;;7.90;99.90;;;;;;6121180;23;20056;-69
2022/12/25 06:37:02;;;;;;;101.03;34.38;;;7.90;99.90;;;;;;6120691;23;20026;-68
2022/12/25 06:39:28;;;;;;;104.63;34.60;;;7.90;99.90;;;;;;6121438;23;20025;-68
2022/12/25 06:41:54;;;;;;;104.65;34.35;;;7.90;99.90;;;;;;6094427;23;20037;-67
2022/12/25 06:44:20;;;;;;;104.25;34.53;;;7.90;99.90;;;;;;6118477;23;20113;-67
2022/12/25 06:46:45;;;;;;;100.78;34.42;;;7.90;99.90;;;;;;6093108;23;20049;-68
2022/12/25 06:49:11;;;;;;;103.15;34.47;;;7.80;99.90;;;;;;6119737;23;20029;-67
2022/12/25 06:51:37;;;;;;;103.68;33.97;;;7.90;99.90;;;;;;6121447;23;20026;-68
2022/12/25 06:54:03;;;;;;;99.07;33.20;;;7.90;99.90;;;;;;6120779;23;20032;-67
2022/12/25 06:56:30;;;;;;;100.15;33.00;;;7.90;99.90;;;;;;6120825;23;20524;-67
2022/12/25 06:58:59;;;;;;;101.57;32.90;;;8.00;99.90;;;;;;6121577;23;20026;-67
2022/12/25 07:01:45;;;;;;;101.35;32.58;;;7.90;99.90;;;;;;6118833;23;20042;-68
2022/12/25 07:04:17;;;;;;;104.18;32.50;;;8.00;99.90;;;;;;6120536;23;20026;-68
2022/12/25 07:06:43;;;;;;;105.90;33.25;;;8.00;99.90;;;;;;6121199;23;20488;-68
2022/12/25 07:09:09;;;;;;;107.90;34.63;;;8.00;99.90;;;;;;6120809;23;20026;-68
2022/12/25 07:11:35;;;;;;;91.57;33.00;;;8.00;99.90;;;;;;6094195;23;20022;-68
2022/12/25 07:14:00;;;;;;;98.80;32.25;;;8.00;99.90;;;;;;6120813;23;20109;-68
2022/12/25 07:16:26;;;;;;;94.60;32.50;;;8.00;99.90;;;;;;6120136;23;20096;-68
2022/12/25 07:18:52;;;;;;;98.07;33.55;;;8.00;99.90;;;;;;6119898;23;20026;-68
2022/12/25 07:21:19;;;;;;;95.93;32.30;;;8.10;99.90;;;;;;6120258;23;20022;-68
2022/12/25 07:23:47;;;;;;;84.60;31.33;;;8.10;99.90;;;;;;6120560;23;20042;-67
2022/12/25 07:26:13;;;;;;;95.43;30.92;;;8.10;99.90;;;;;;6093567;23;20017;-67
2022/12/25 07:28:39;;;;;;;84.85;29.98;;;8.10;99.90;;;;;;6094506;23;20017;-68
2022/12/25 07:31:13;;;;;;;86.72;31.38;;;8.10;99.90;;;;;;6092709;23;20028;-67
2022/12/25 07:33:40;;;;;;;83.22;31.55;;;8.10;99.90;;;;;;6120005;23;20022;-68
2022/12/25 07:36:06;;;;;;;87.80;30.85;;;8.10;99.90;;;;;;6093700;23;20026;-67
2022/12/25 07:38:32;;;;;;;83.60;30.92;;;8.20;99.90;;;;;;6094398;23;20014;-68
2022/12/25 07:40:58;;;;;;;87.15;30.60;;;8.20;99.90;;;;;;6094041;23;20052;-67
2022/12/25 07:43:24;;;;;;;86.68;30.08;;;8.20;99.90;;;;;;6118846;23;20627;-68
2022/12/25 07:45:58;;;;;;;83.32;29.67;;;8.10;99.90;;;;;;6119620;23;20017;-69
2022/12/25 07:48:27;;;;;;;72.03;28.58;;;8.20;99.90;;;;;;6118558;23;20509;-68
2022/12/25 07:51:00;;;;;;;79.45;29.50;;;8.20;99.90;;;;;;6119859;23;20125;-67
2022/12/25 07:53:26;;;;;;;;;;;8.10;99.90;;;;;;6095123;23;20081;-68
2022/12/25 07:56:05;;;;;;;76.38;27.27;;;8.10;99.90;;;;;;6093052;23;19963;-68
2022/12/25 07:58:32;;;;;;;65.07;24.98;;;8.20;99.90;;;;;;6120252;23;20036;-68
2022/12/25 08:01:04;;;;;;;59.78;24.80;;;8.10;99.90;;;;;;6118208;23;20043;-68
2022/12/25 08:03:30;;;;;;;63.90;25.48;;;8.10;99.90;;;;;;6118208;23;20802;-68
2022/12/25 08:06:05;;;;;;;67.50;25.85;;;8.10;99.90;;;;;;6094279;23;20048;-67
2022/12/25 08:08:31;;;;;;;73.90;26.98;;;8.10;99.90;;;;;;6092939;23;20066;-67
2022/12/25 08:10:57;;;;;;;65.78;25.25;;;8.00;99.90;;;;;;6119234;23;20030;-67
2022/12/25 08:13:22;;;;;;;67.25;26.13;;;8.00;99.90;;;;;;6103824;23;20035;-67
2022/12/25 08:15:48;;;;;;;63.42;24.90;;;8.00;99.90;;;;;;6093368;23;20414;-68
2022/12/25 08:18:14;;;;;;;69.38;24.05;;;8.00;99.90;;;;;;6118033;23;20026;-67
2022/12/25 08:20:39;;;;;;;67.85;24.33;;;8.00;99.90;;;;;;6119213;23;20026;-67
2022/12/25 08:23:05;;;;;;;56.38;23.20;;;8.00;99.90;;;;;;6092206;23;20077;-68
2022/12/25 08:25:31;;;;;;;55.40;22.27;;;8.00;99.90;;;;;;6093112;23;20030;-67
2022/12/25 08:28:00;;;;;;;61.83;22.58;;;8.00;99.90;;;;;;6102980;23;20026;-68
2022/12/25 08:30:26;;;;;;;56.90;22.80;;;8.00;99.90;;;;;;6118380;23;20025;-67
2022/12/25 08:32:52;;;;;;;60.28;22.92;;;8.00;99.90;;;;;;6117215;23;20033;-68
2022/12/25 08:35:17;;;;;;;50.47;22.13;;;8.10;99.90;;;;;;6117906;23;20014;-67
2022/12/25 08:37:43;;;;;;;48.85;21.65;;;8.00;99.90;;;;;;6119474;23;20045;-68
2022/12/25 08:40:09;;;;;;;49.55;21.05;;;8.10;99.90;;;;;;6118486;23;20089;-67
2022/12/25 08:42:35;;;;;;;59.15;22.00;;;8.10;99.90;;;;;;6118394;23;20029;-67
2022/12/25 08:45:00;;;;;;;48.40;18.58;;;8.10;99.90;;;;;;6079050;23;20029;-67
2022/12/25 08:47:26;;;;;;;43.45;18.35;;;8.10;99.90;;;;;;6117963;23;20060;-66
2022/12/25 08:49:52;;;;;;;41.53;18.92;;;8.10;99.90;;;;;;6118146;23;20056;-66
2022/12/25 08:52:17;;;;;;;48.15;18.88;;;8.10;99.90;;;;;;6117986;23;20037;-67
2022/12/25 08:54:45;;;;;;;47.83;18.38;;;8.00;99.90;;;;;;6119859;23;20037;-67
2022/12/25 08:57:11;;;;;;;48.83;18.15;;;8.10;99.90;;;;;;6118647;23;20022;-67
2022/12/25 08:59:36;;;;;;;46.58;19.50;;;8.00;99.90;;;;;;6119595;23;20026;-67
2022/12/25 09:02:02;;;;;;;47.33;21.65;;;8.00;99.90;;;;;;6116971;23;20021;-68
2022/12/25 09:04:28;;;;;;;59.03;26.33;;;8.00;99.90;;;;;;6119336;23;20025;-67
2022/12/25 09:06:53;;;;;;;59.83;22.67;;;8.10;99.90;;;;;;6118630;23;20026;-67
2022/12/25 09:09:19;;;;;;;47.40;18.75;;;8.00;99.90;;;;;;6116754;23;20022;-67
2022/12/25 09:11:45;;;;;;;42.80;18.45;;;8.10;99.90;;;;;;6118044;23;20026;-67
2022/12/25 09:14:12;;;;;;;49.88;19.10;;;8.10;99.90;;;;;;6116914;23;20018;-67
2022/12/25 09:16:38;;;;;;;47.33;17.13;;;8.10;99.90;;;;;;6117956;23;20153;-68
2022/12/25 09:19:04;;;;;;;40.53;16.95;;;8.10;99.90;;;;;;6117319;23;20042;-67
2022/12/25 09:21:29;;;;;;;43.08;17.08;;;8.20;99.90;;;;;;6092125;23;20059;-68
2022/12/25 09:23:55;;;;;;;42.38;16.50;;;8.20;99.90;;;;;;6118361;23;20153;-68
2022/12/25 09:26:21;;;;;;;44.92;18.38;;;8.20;99.90;;;;;;6117446;23;20030;-68
2022/12/25 09:28:47;;;;;;;43.53;16.45;;;8.20;99.90;;;;;;6092157;23;20109;-68
2022/12/25 09:31:12;;;;;;;40.20;17.30;;;8.20;99.90;;;;;;6117027;23;20461;-68
2022/12/25 09:33:38;;;;;;;37.58;14.57;;;8.20;99.90;;;;;;6091917;23;20018;-69
2022/12/25 09:36:07;;;;;;;36.97;15.95;;;8.20;99.90;;;;;;6116318;23;20028;-69
2022/12/25 09:38:34;;;;;;;39.88;15.65;;;8.20;99.90;;;;;;6117706;23;20659;-68
2022/12/25 09:41:21;;;;;;;35.42;15.82;;;8.20;99.90;;;;;;6092011;23;20061;-68
2022/12/25 09:44:08;;;;;;;34.85;15.80;;;8.20;99.90;;;;;;6092030;23;20026;-68
2022/12/25 09:46:41;;;;;;;40.47;16.83;;;8.30;99.90;;;;;;6116514;23;20045;-68
2022/12/25 09:49:10;;;;;;;42.75;16.00;;;8.30;99.90;;;;;;6118469;23;20049;-68
2022/12/25 09:51:38;;;;;;;34.40;15.02;;;8.30;99.90;;;;;;6118902;23;20032;-67
2022/12/25 09:54:13;;;;;;;41.17;16.27;;;8.40;99.90;;;;;;6116619;23;20049;-67
2022/12/25 09:56:38;;;;;;;36.95;15.73;;;8.40;99.90;;;;;;6118187;23;20048;-67
2022/12/25 09:59:17;;;;;;;47.15;16.67;;;8.40;99.90;;;;;;6090713;23;20611;-68
2022/12/25 10:02:07;;;;;;;39.47;16.90;;;8.40;99.90;;;;;;6118240;23;20026;-67
2022/12/25 10:05:02;;;;;;;40.78;16.38;;;8.40;99.90;;;;;;6118020;23;20022;-67
2022/12/25 10:07:45;;;;;;;39.72;17.17;;;8.40;99.90;;;;;;6117178;23;20357;-68
2022/12/25 10:10:13;;;;;;;41.75;16.73;;;8.40;99.90;;;;;;6091103;23;20030;-68
2022/12/25 10:12:51;;;;;;;46.50;19.23;;;8.40;99.90;;;;;;6118465;23;20030;-67
2022/12/25 10:15:40;;;;;;;39.72;16.00;;;8.40;99.90;;;;;;6116871;23;20113;-68
2022/12/25 10:18:34;;;;;;;41.97;17.25;;;8.40;99.90;;;;;;6115804;23;20025;-69
2022/12/25 10:21:01;;;;;;;38.38;15.27;;;8.40;99.90;;;;;;6117458;23;20097;-67
2022/12/25 10:23:33;;;;;;;38.83;17.58;;;8.40;99.90;;;;;;6118310;23;20048;-67
2022/12/25 10:25:58;;;;;;;42.65;18.73;;;8.50;99.90;;;;;;6119478;23;20018;-67
2022/12/25 10:28:27;;;;;;;33.47;16.02;;;8.40;99.90;;;;;;6093095;23;20029;-67
2022/12/25 10:30:57;;;;;;;41.35;17.67;;;8.40;99.90;;;;;;6118864;23;20105;-67
2022/12/25 10:33:22;;;;;;;42.28;18.33;;;8.50;99.90;;;;;;6118505;23;20112;-67
2022/12/25 10:35:48;;;;;;;42.17;18.75;;;8.50;99.90;;;;;;6119140;23;20461;-67
2022/12/25 10:38:17;;;;;;;38.70;17.05;;;8.60;99.90;;;;;;6118064;23;20047;-66
2022/12/25 10:41:12;;;;;;;37.88;17.08;;;8.50;99.90;;;;;;6121477;23;20108;-67
2022/12/25 10:43:44;;;;;;;41.50;19.05;;;8.60;99.90;;;;;;6118912;23;20037;-67
2022/12/25 10:46:12;;;;;;;39.70;17.33;;;8.60;99.90;;;;;;6091268;23;20109;-67
2022/12/25 10:48:54;;;;;;;38.45;16.50;;;8.60;99.90;;;;;;6118646;23;20026;-67
2022/12/25 10:51:31;;;;;;;37.95;17.35;;;8.50;99.90;;;;;;6094678;23;20026;-67
2022/12/25 10:53:57;;;;;;;39.22;16.55;;;8.50;99.90;;;;;;6120604;23;20073;-68
2022/12/25 10:56:23;;;;;;;39.38;17.05;;;8.50;99.90;;;;;;6117930;23;20116;-68
2022/12/25 10:58:48;;;;;;;45.60;17.83;;;8.50;99.90;;;;;;6092585;23;20430;-67
2022/12/25 11:01:14;;;;;;;35.50;17.00;;;8.60;99.90;;;;;;6094008;23;20033;-67
2022/12/25 11:03:44;;;;;;;36.88;16.30;;;8.60;99.90;;;;;;6092964;23;20749;-67
2022/12/25 11:06:28;;;;;;;34.67;15.88;;;8.60;99.90;;;;;;6092206;23;20025;-68
2022/12/25 11:08:55;;;;;;;;;;;8.70;99.90;;;;;;6118861;23;20014;-67
2022/12/25 11:11:21;;;;;;;33.97;14.95;;;8.70;99.90;;;;;;6117505;23;19924;-68
2022/12/25 11:13:52;;;;;;;35.20;15.25;;;8.70;99.90;;;;;;6119259;23;20022;-69
2022/12/25 11:16:42;;;;;;;29.58;14.30;;;8.70;99.90;;;;;;6093099;23;20018;-68
2022/12/25 11:19:29;;;;;;;30.80;14.82;;;8.70;99.90;;;;;;6120553;23;20018;-69
2022/12/25 11:21:57;;;;;;;35.30;13.65;;;8.70;99.90;;;;;;6094255;23;20018;-68
2022/12/25 11:24:31;;;;;;;28.00;13.88;;;8.70;99.90;;;;;;6091952;23;20045;-69
2022/12/25 11:26:59;;;;;;;30.10;13.23;;;8.80;99.90;;;;;;6092850;23;20017;-68
2022/12/25 11:29:36;;;;;;;27.85;13.48;;;8.80;99.90;;;;;;6117712;23;20041;-68
2022/12/25 11:32:04;;;;;;;27.52;13.55;;;8.80;99.90;;;;;;6115532;23;20030;-68
2022/12/25 11:34:37;;;;;;;26.80;13.48;;;8.80;99.90;;;;;;6117823;23;20025;-68
2022/12/25 11:37:11;;;;;;;23.63;13.98;;;8.90;99.90;;;;;;6117778;23;20018;-68
2022/12/25 11:39:40;;;;;;;31.60;13.80;;;8.80;99.90;;;;;;6092508;23;20028;-68
2022/12/25 11:42:21;;;;;;;25.50;12.50;;;8.80;99.90;;;;;;6117452;23;20030;-68
2022/12/25 11:45:06;;;;;;;21.33;13.05;;;8.90;99.90;;;;;;6117801;23;20549;-69
2022/12/25 11:47:44;;;;;;;25.50;14.05;;;8.90;99.90;;;;;;6091536;23;20021;-69
2022/12/25 11:50:26;;;;;;;20.98;12.70;;;8.90;99.90;;;;;;6092694;23;20022;-69
2022/12/25 11:52:52;;;;;;;20.88;12.02;;;8.90;99.90;;;;;;6090765;23;20026;-68
2022/12/25 11:55:28;;;;;;;27.80;12.95;;;9.00;99.90;;;;;;6092836;23;20149;-69
2022/12/25 11:57:58;;;;;;;24.13;12.02;;;8.90;99.90;;;;;;6118476;23;20653;-68
2022/12/25 12:00:25;;;;;;;22.38;11.90;;;9.00;99.90;;;;;;6117999;23;20049;-70
2022/12/25 12:02:59;;;;;;;26.63;13.13;;;8.90;99.90;;;;;;6118124;23;20026;-69
2022/12/25 12:05:32;;;;;;;27.02;12.52;;;8.90;99.90;;;;;;6119048;23;20060;-68
2022/12/25 12:08:00;;;;;;;24.75;13.88;;;9.00;99.90;;;;;;6119875;23;20021;-69
2022/12/25 12:11:14;;;;;;;21.25;12.23;;;9.00;99.90;;;;;;6119105;23;20077;-69
2022/12/25 12:13:40;;;;;;;22.90;12.43;;;9.00;99.90;;;;;;6118255;23;20033;-70
2022/12/25 12:16:07;;;;;;;22.02;12.10;;;9.00;99.90;;;;;;6118427;23;20405;-69
2022/12/25 12:18:33;;;;;;;21.73;11.55;;;9.00;99.90;;;;;;6093544;23;20041;-69
2022/12/25 12:21:22;;;;;;;23.52;11.57;;;9.10;99.90;;;;;;6093345;23;20018;-68
2022/12/25 12:24:11;;;;;;;25.67;12.60;;;9.00;99.90;;;;;;6118004;23;20045;-68
2022/12/25 12:26:39;;;;;;;17.13;10.43;;;9.00;99.90;;;;;;6117746;23;20036;-67
2022/12/25 12:29:20;;;;;;;19.50;10.55;;;9.00;99.90;;;;;;6119164;23;20026;-67
2022/12/25 12:31:48;;;;;;;19.23;10.10;;;9.10;99.90;;;;;;6117948;23;20042;-68
2022/12/25 12:34:39;;;;;;;21.73;10.82;;;9.10;99.90;;;;;;6118804;23;20014;-67
2022/12/25 12:37:14;;;;;;;22.85;11.65;;;9.00;99.90;;;;;;6120045;23;20033;-68
2022/12/25 12:39:41;;;;;;;20.15;11.00;;;9.00;99.90;;;;;;6119134;23;20030;-68
2022/12/25 12:42:17;;;;;;;26.23;11.93;;;9.10;99.90;;;;;;6118905;23;20033;-69
2022/12/25 12:44:44;;;;;;;23.63;12.75;;;9.00;99.90;;;;;;6120084;23;20033;-68
2022/12/25 12:47:29;;;;;;;20.10;12.02;;;9.00;99.90;;;;;;6118608;23;20029;-69
2022/12/25 12:49:59;;;;;;;21.98;12.68;;;9.00;99.90;;;;;;6090502;23;20120;-69
2022/12/25 12:52:30;;;;;;;21.17;11.68;;;9.00;99.90;;;;;;6117619;23;20029;-69
2022/12/25 12:54:58;;;;;;;28.73;13.18;;;9.00;99.90;;;;;;6118749;23;20259;-69
2022/12/25 12:57:28;;;;;;;23.42;12.32;;;9.00;99.90;;;;;;6093176;23;20037;-68
2022/12/25 12:59:56;;;;;;;20.73;11.88;;;9.00;99.90;;;;;;6118846;23;20029;-69
2022/12/25 13:02:43;;;;;;;20.80;12.80;;;8.90;99.90;;;;;;6117640;23;20085;-69
2022/12/25 13:05:44;;;;;;;24.40;12.35;;;8.90;99.90;;;;;;6117201;23;20030;-68
2022/12/25 13:08:21;;;;;;;18.60;11.98;;;8.90;99.90;;;;;;6045992;23;20032;-67
2022/12/25 13:11:08;;;;;;;25.23;13.88;;;9.00;99.90;;;;;;6118590;23;20053;-68
2022/12/25 13:13:39;;;;;;;19.52;10.40;;;9.00;99.90;;;;;;6097785;23;20036;-68
2022/12/25 13:16:11;;;;;;;22.33;11.63;;;9.00;99.90;;;;;;6089765;23;20026;-68
2022/12/25 13:18:38;;;;;;;22.57;12.20;;;9.00;99.90;;;;;;6069673;23;20393;-68
2022/12/25 13:21:05;;;;;;;21.95;13.00;;;9.00;99.90;;;;;;6118967;23;20110;-69
2022/12/25 13:23:33;;;;;;;18.92;11.48;;;9.10;99.90;;;;;;6118755;23;20029;-68
2022/12/25 13:26:14;;;;;;;19.17;11.13;;;9.10;99.90;;;;;;6093843;23;20026;-68
2022/12/25 13:28:40;;;;;;;33.33;14.35;;;9.00;99.90;;;;;;6115709;23;20030;-68
2022/12/25 13:31:14;;;;;;;32.13;17.23;;;9.00;99.90;;;;;;6115072;23;20037;-70
2022/12/25 13:33:45;;;;;;;37.85;20.65;;;9.00;99.90;;;;;;6087097;23;20117;-69
2022/12/25 13:36:12;;;;;;;40.13;23.02;;;9.00;99.90;;;;;;6117153;23;20069;-68
2022/12/25 13:38:44;;;;;;;28.33;15.90;;;9.00;99.90;;;;;;6092065;23;20157;-68
2022/12/25 13:43:58;;;;;;;27.92;14.05;;;9.00;99.90;;;;;;6119641;23;20022;-68
2022/12/25 13:46:26;;;;;;;25.02;14.57;;;9.00;99.90;;;;;;6116697;23;20056;-69
2022/12/25 13:48:59;;;;;;;23.63;13.82;;;8.90;99.90;;;;;;6118095;23;20445;-69
2022/12/25 13:51:26;;;;;;;25.05;13.68;;;8.90;99.90;;;;;;6091312;23;20026;-69
2022/12/25 13:54:02;;;;;;;22.92;13.32;;;9.00;99.90;;;;;;6117701;23;20469;-69
2022/12/25 13:56:29;;;;;;;27.10;12.68;;;9.00;99.90;;;;;;6118403;23;20029;-69
2022/12/25 13:58:55;;;;;;;28.75;13.40;;;8.90;99.90;;;;;;6117886;23;20022;-69
2022/12/25 14:01:20;;;;;;;21.23;13.30;;;8.90;99.90;;;;;;6119651;23;21951;-70
2022/12/25 14:03:46;;;;;;;24.92;13.30;;;9.00;99.90;;;;;;6120943;23;20025;-69
2022/12/25 14:06:19;;;;;;;31.50;16.45;;;9.00;99.90;;;;;;6119760;23;20022;-69
2022/12/25 14:08:46;;;;;;;30.98;16.90;;;8.90;99.90;;;;;;6121207;23;20018;-70
2022/12/25 14:11:15;;;;;;;25.63;13.70;;;8.90;99.90;;;;;;6094595;23;20026;-69
2022/12/25 14:13:44;;;;;;;25.23;13.10;;;8.90;99.90;;;;;;6120073;23;20026;-69
2022/12/25 14:16:10;;;;;;;28.23;15.13;;;8.90;99.90;;;;;;6119345;23;20497;-69
2022/12/25 14:18:35;;;;;;;28.42;15.30;;;8.90;99.90;;;;;;6121233;23;20060;-69
2022/12/25 14:21:03;;;;;;;28.42;15.07;;;8.90;99.90;;;;;;6120402;23;20018;-70
2022/12/25 14:23:49;;;;;;;25.10;13.40;;;8.90;99.90;;;;;;6120557;23;20026;-69
2022/12/25 14:26:24;;;;;;;25.58;12.35;;;8.90;99.90;;;;;;6119084;23;20025;-69
2022/12/25 14:29:00;;;;;;;25.75;12.80;;;8.90;99.90;;;;;;6121972;23;20022;-69
2022/12/25 14:31:28;;;;;;;25.33;12.90;;;8.90;99.90;;;;;;6118316;23;20659;-69
2022/12/25 14:33:54;;;;;;;22.95;13.18;;;8.90;99.90;;;;;;6119452;23;20018;-69
2022/12/25 14:36:20;;;;;;;26.38;13.45;;;8.80;99.90;;;;;;6093107;23;20026;-69